Time,TemperatureF,DewpointF,PressureIn,WindDirection,WindDirectionDegrees,WindSpeedMPH,WindSpeedGustMPH,Humidity,HourlyPrecipIn,Conditions,Clouds,dailyrainin,SolarRadiationWatts/m^2,SoftwareType,DateUTC
2013-06-16 00:01:00,79.0,54.0,-100.00,North,356,3.0,8.0,42,0.00,,,0.00,1.000000,,2013-06-16 07:01:00,
2013-06-16 00:43:00,77.0,53.0,-100.00,North,5,3.0,5.0,44,0.00,,,0.00,1.000000,,2013-06-16 07:43:00,
2013-06-16 00:53:00,77.0,53.0,-100.00,North,5,3.0,5.0,44,0.00,,,0.00,1.000000,,2013-06-16 07:53:00,
2013-06-16 01:02:00,77.0,53.0,-100.00,North,5,3.0,5.0,44,0.00,,,0.00,1.000000,,2013-06-16 08:02:00,
2013-06-16 01:43:00,76.0,51.0,-100.00,North,352,4.0,6.0,41,0.00,,,0.00,1.000000,,2013-06-16 08:43:00,
2013-06-16 01:54:00,76.0,51.0,-100.00,North,352,4.0,6.0,41,0.00,,,0.00,1.000000,,2013-06-16 08:54:00,
2013-06-16 02:01:00,76.0,51.0,-100.00,North,352,4.0,6.0,41,0.00,,,0.00,1.000000,,2013-06-16 09:01:00,
2013-06-16 04:43:00,71.0,50.0,-100.00,NNW,345,2.0,5.0,48,0.00,,,0.00,1.000000,,2013-06-16 11:43:00,
2013-06-16 04:53:00,71.0,50.0,-100.00,NNW,345,2.0,5.0,48,0.00,,,0.00,1.000000,,2013-06-16 11:53:00,
2013-06-16 05:33:00,71.0,52.0,-100.00,North,2,2.0,5.0,51,0.00,,,0.00,1.000000,,2013-06-16 12:33:00,
2013-06-16 05:43:00,71.0,52.0,-100.00,North,2,2.0,5.0,51,0.00,,,0.00,1.000000,,2013-06-16 12:43:00,
2013-06-16 05:53:00,71.0,52.0,-100.00,North,2,2.0,5.0,51,0.00,,,0.00,1.000000,,2013-06-16 12:53:00,
2013-06-16 06:01:00,71.0,52.0,-100.00,North,2,2.0,5.0,51,0.00,,,0.00,1.000000,,2013-06-16 13:01:00,
2013-06-16 06:34:00,72.0,47.0,-100.00,NNW,345,2.0,5.0,41,0.00,,,-99.99,23.000000,,2013-06-16 13:34:00,
2013-06-16 07:34:00,81.0,55.0,-100.00,SSE,160,2.0,6.0,41,0.00,,,0.00,179.000000,,2013-06-16 14:34:00,
2013-06-16 07:43:00,81.0,55.0,-100.00,SSE,160,2.0,6.0,41,0.00,,,0.00,179.000000,,2013-06-16 14:43:00,
2013-06-16 07:52:00,81.0,55.0,-100.00,SSE,160,2.0,6.0,41,0.00,,,0.00,179.000000,,2013-06-16 14:52:00,
2013-06-16 08:02:00,81.0,55.0,-100.00,SSE,160,2.0,6.0,41,0.00,,,0.00,179.000000,,2013-06-16 15:02:00,
2013-06-16 08:34:00,90.0,53.0,-100.00,WSW,258,3.0,5.0,29,0.00,,,0.00,376.000000,,2013-06-16 15:34:00,
2013-06-16 08:43:00,90.0,53.0,-100.00,WSW,258,3.0,5.0,29,0.00,,,0.00,376.000000,,2013-06-16 15:43:00,
2013-06-16 08:52:00,90.0,53.0,-100.00,WSW,258,3.0,5.0,29,0.00,,,0.00,376.000000,,2013-06-16 15:52:00,
2013-06-16 09:01:00,90.0,53.0,-100.00,WSW,258,3.0,5.0,29,0.00,,,0.00,376.000000,,2013-06-16 16:01:00,
2013-06-16 09:33:00,94.0,52.0,-100.00,SSW,201,3.0,6.0,24,0.00,,,0.00,575.000000,,2013-06-16 16:33:00,
2013-06-16 09:43:00,94.0,52.0,-100.00,SSW,201,3.0,6.0,24,0.00,,,0.00,575.000000,,2013-06-16 16:43:00,
2013-06-16 09:53:00,94.0,52.0,-100.00,SSW,201,3.0,6.0,24,0.00,,,0.00,575.000000,,2013-06-16 16:53:00,
2013-06-16 10:01:00,94.0,52.0,-100.00,SSW,201,3.0,6.0,24,0.00,,,0.00,575.000000,,2013-06-16 17:01:00,
2013-06-16 10:43:00,98.0,50.0,-100.00,SSE,149,4.0,7.0,20,0.00,,,0.00,750.000000,,2013-06-16 17:43:00,
2013-06-16 10:53:00,98.0,50.0,-100.00,SSE,149,4.0,7.0,20,0.00,,,0.00,750.000000,,2013-06-16 17:53:00,
2013-06-16 11:02:00,98.0,50.0,-100.00,SSE,149,4.0,7.0,20,0.00,,,0.00,750.000000,,2013-06-16 18:02:00,
2013-06-16 11:34:00,101.0,48.0,-100.00,South,184,4.0,10.0,17,0.00,,,0.00,886.000000,,2013-06-16 18:34:00,
2013-06-16 11:43:00,101.0,48.0,-100.00,South,184,4.0,10.0,17,0.00,,,0.00,886.000000,,2013-06-16 18:43:00,
2013-06-16 11:52:00,101.0,48.0,-100.00,South,184,4.0,10.0,17,0.00,,,0.00,886.000000,,2013-06-16 18:52:00,
2013-06-16 12:01:00,101.0,48.0,-100.00,South,184,4.0,10.0,17,0.00,,,0.00,886.000000,,2013-06-16 19:01:00,
2013-06-16 12:34:00,100.0,47.0,-100.00,SW,221,5.0,11.0,17,0.00,,,0.00,812.000000,,2013-06-16 19:34:00,
2013-06-16 12:43:00,100.0,47.0,-100.00,SW,221,5.0,11.0,17,0.00,,,0.00,812.000000,,2013-06-16 19:43:00,
2013-06-16 12:53:00,100.0,47.0,-100.00,SW,221,5.0,11.0,17,0.00,,,0.00,812.000000,,2013-06-16 19:53:00,
2013-06-16 13:01:00,100.0,47.0,-100.00,SW,221,5.0,11.0,17,0.00,,,0.00,812.000000,,2013-06-16 20:01:00,
2013-06-16 13:33:00,105.0,50.0,-100.00,South,177,6.0,13.0,16,0.00,,,0.00,912.000000,,2013-06-16 20:33:00,
2013-06-16 13:43:00,105.0,50.0,-100.00,South,177,6.0,13.0,16,0.00,,,0.00,912.000000,,2013-06-16 20:43:00,
2013-06-16 13:53:00,105.0,50.0,-100.00,South,177,6.0,13.0,16,0.00,,,0.00,912.000000,,2013-06-16 20:53:00,
2013-06-16 14:01:00,105.0,50.0,-100.00,South,177,6.0,13.0,16,0.00,,,0.00,912.000000,,2013-06-16 21:01:00,
2013-06-16 14:33:00,104.0,47.0,-100.00,SSW,194,5.0,12.0,15,0.00,,,0.00,817.000000,,2013-06-16 21:33:00,
2013-06-16 14:42:00,104.0,47.0,-100.00,SSW,194,5.0,12.0,15,0.00,,,0.00,817.000000,,2013-06-16 21:42:00,
2013-06-16 14:53:00,104.0,47.0,-100.00,SSW,194,5.0,12.0,15,0.00,,,0.00,817.000000,,2013-06-16 21:53:00,
2013-06-16 15:01:00,104.0,47.0,-100.00,SSW,194,5.0,12.0,15,0.00,,,0.00,817.000000,,2013-06-16 22:01:00,
2013-06-16 15:32:00,102.0,47.0,-100.00,NW,323,6.0,15.0,16,0.00,,,0.00,585.000000,,2013-06-16 22:32:00,
2013-06-16 15:42:00,102.0,47.0,-100.00,NW,323,6.0,15.0,16,0.00,,,0.00,585.000000,,2013-06-16 22:42:00,
2013-06-16 15:52:00,102.0,47.0,-100.00,NW,323,6.0,15.0,16,0.00,,,0.00,585.000000,,2013-06-16 22:52:00,
2013-06-16 16:01:00,102.0,47.0,-100.00,NW,323,6.0,15.0,16,0.00,,,0.00,585.000000,,2013-06-16 23:01:00,
2013-06-16 16:32:00,102.0,42.0,-100.00,WNW,283,9.0,18.0,13,0.00,,,0.00,386.000000,,2013-06-16 23:32:00,
2013-06-16 16:42:00,102.0,42.0,-100.00,WNW,283,9.0,18.0,13,0.00,,,0.00,386.000000,,2013-06-16 23:42:00,
2013-06-16 16:52:00,102.0,42.0,-100.00,WNW,283,9.0,18.0,13,0.00,,,0.00,386.000000,,2013-06-16 23:52:00,
2013-06-16 17:01:00,102.0,42.0,-100.00,WNW,283,9.0,18.0,13,0.00,,,0.00,386.000000,,2013-06-17 00:01:00,
2013-06-16 17:32:00,103.0,38.0,-100.00,WNW,294,8.0,19.0,11,0.00,,,0.00,456.000000,,2013-06-17 00:32:00,
2013-06-16 17:43:00,103.0,38.0,-100.00,WNW,294,8.0,19.0,11,0.00,,,0.00,456.000000,,2013-06-17 00:43:00,
2013-06-16 17:52:00,103.0,38.0,-100.00,WNW,294,8.0,19.0,11,0.00,,,0.00,456.000000,,2013-06-17 00:52:00,
2013-06-16 18:02:00,103.0,38.0,-100.00,WNW,294,8.0,19.0,11,0.00,,,0.00,456.000000,,2013-06-17 01:02:00,
2013-06-16 18:32:00,102.0,35.0,-100.00,WNW,300,10.0,21.0,10,0.00,,,0.00,335.000000,,2013-06-17 01:32:00,
2013-06-16 18:43:00,102.0,35.0,-100.00,WNW,300,10.0,21.0,10,0.00,,,0.00,335.000000,,2013-06-17 01:43:00,
2013-06-16 18:53:00,102.0,35.0,-100.00,WNW,300,10.0,21.0,10,0.00,,,0.00,335.000000,,2013-06-17 01:53:00,
2013-06-16 19:02:00,102.0,35.0,-100.00,WNW,300,10.0,21.0,10,0.00,,,0.00,335.000000,,2013-06-17 02:02:00,
2013-06-16 19:34:00,97.0,31.0,-100.00,WNW,295,10.0,20.0,10,0.00,,,0.00,99.000000,,2013-06-17 02:34:00,
2013-06-16 19:43:00,97.0,31.0,-100.00,WNW,295,10.0,20.0,10,0.00,,,0.00,99.000000,,2013-06-17 02:43:00,
2013-06-16 19:53:00,97.0,31.0,-100.00,WNW,295,10.0,20.0,10,0.00,,,0.00,99.000000,,2013-06-17 02:53:00,
2013-06-16 20:02:00,97.0,31.0,-100.00,WNW,295,10.0,20.0,10,0.00,,,0.00,99.000000,,2013-06-17 03:02:00,
2013-06-16 20:33:00,92.0,30.0,-100.00,NW,317,5.0,15.0,11,0.00,,,0.00,6.000000,,2013-06-17 03:33:00,
2013-06-16 20:44:00,92.0,30.0,-100.00,NW,317,5.0,15.0,11,0.00,,,0.00,6.000000,,2013-06-17 03:44:00,
2013-06-16 20:54:00,92.0,30.0,-100.00,NW,317,5.0,15.0,11,0.00,,,0.00,6.000000,,2013-06-17 03:54:00,
2013-06-16 21:02:00,92.0,30.0,-100.00,NW,317,5.0,15.0,11,0.00,,,0.00,6.000000,,2013-06-17 04:02:00,
2013-06-16 21:43:00,92.0,30.0,-100.00,NNW,336,6.0,14.0,11,0.00,,,0.00,1.000000,,2013-06-17 04:43:00,
2013-06-16 21:53:00,92.0,30.0,-100.00,NNW,336,6.0,14.0,11,0.00,,,0.00,1.000000,,2013-06-17 04:53:00,
2013-06-16 22:02:00,92.0,30.0,-100.00,NNW,336,6.0,14.0,11,0.00,,,0.00,1.000000,,2013-06-17 05:02:00,
2013-06-16 22:33:00,89.0,28.0,-100.00,NW,324,5.0,14.0,11,0.00,,,0.00,1.000000,,2013-06-17 05:33:00,
2013-06-16 22:44:00,89.0,28.0,-100.00,NW,324,5.0,14.0,11,0.00,,,0.00,1.000000,,2013-06-17 05:44:00,
2013-06-16 22:53:00,89.0,28.0,-100.00,NW,324,5.0,14.0,11,0.00,,,0.00,1.000000,,2013-06-17 05:53:00,
2013-06-16 23:02:00,89.0,28.0,-100.00,NW,324,5.0,14.0,11,0.00,,,0.00,1.000000,,2013-06-17 06:02:00,
2013-06-16 23:33:00,85.0,25.0,-100.00,East,98,3.0,12.0,11,0.00,,,0.00,1.000000,,2013-06-17 06:33:00,